sensor_id;sensor_type;location;lat;lon;timestamp;P1;durP1;ratioP1;P2;durP2;ratioP2
77324;SDS011;66387;53.440;10.390;2023-12-20T00:01:31;3.17;;;1.65;;
77324;SDS011;66387;53.440;10.390;2023-12-20T00:03:56;9.70;;;2.17;;
77324;SDS011;66387;53.440;10.390;2023-12-20T00:06:21;5.40;;;2.63;;
77324;SDS011;66387;53.440;10.390;2023-12-20T00:08:47;6.73;;;1.80;;
77324;SDS011;66387;53.440;10.390;2023-12-20T00:11:12;6.07;;;1.58;;
77324;SDS011;66387;53.440;10.390;2023-12-20T00:13:38;6.77;;;2.30;;
77324;SDS011;66387;53.440;10.390;2023-12-20T00:16:03;8.13;;;3.40;;
77324;SDS011;66387;53.440;10.390;2023-12-20T00:18:28;5.78;;;1.45;;
77324;SDS011;66387;53.440;10.390;2023-12-20T00:20:54;8.57;;;2.30;;
77324;SDS011;66387;53.440;10.390;2023-12-20T00:23:19;5.40;;;2.50;;
77324;SDS011;66387;53.440;10.390;2023-12-20T00:25:44;4.07;;;2.10;;
77324;SDS011;66387;53.440;10.390;2023-12-20T00:28:10;8.47;;;2.30;;
77324;SDS011;66387;53.440;10.390;2023-12-20T00:30:35;13.70;;;2.40;;
77324;SDS011;66387;53.440;10.390;2023-12-20T00:33:01;10.32;;;2.22;;
77324;SDS011;66387;53.440;10.390;2023-12-20T00:35:27;7.82;;;2.10;;
77324;SDS011;66387;53.440;10.390;2023-12-20T00:37:52;4.90;;;1.88;;
77324;SDS011;66387;53.440;10.390;2023-12-20T00:40:18;12.57;;;2.60;;
77324;SDS011;66387;53.440;10.390;2023-12-20T00:42:43;6.80;;;2.20;;
77324;SDS011;66387;53.440;10.390;2023-12-20T00:45:08;6.60;;;3.37;;
77324;SDS011;66387;53.440;10.390;2023-12-20T00:47:33;7.78;;;2.22;;
77324;SDS011;66387;53.440;10.390;2023-12-20T00:49:59;7.00;;;1.90;;
77324;SDS011;66387;53.440;10.390;2023-12-20T00:52:24;6.50;;;3.28;;
77324;SDS011;66387;53.440;10.390;2023-12-20T00:54:50;4.70;;;1.63;;
77324;SDS011;66387;53.440;10.390;2023-12-20T00:57:15;4.68;;;2.33;;
77324;SDS011;66387;53.440;10.390;2023-12-20T00:59:41;8.13;;;2.30;;
77324;SDS011;66387;53.440;10.390;2023-12-20T01:02:06;7.93;;;2.97;;
77324;SDS011;66387;53.440;10.390;2023-12-20T01:04:31;4.50;;;1.70;;
77324;SDS011;66387;53.440;10.390;2023-12-20T01:06:56;8.13;;;2.22;;
77324;SDS011;66387;53.440;10.390;2023-12-20T01:09:22;5.23;;;2.40;;
77324;SDS011;66387;53.440;10.390;2023-12-20T01:11:51;7.30;;;1.83;;
77324;SDS011;66387;53.440;10.390;2023-12-20T01:14:17;7.97;;;2.83;;
77324;SDS011;66387;53.440;10.390;2023-12-20T01:16:42;7.13;;;1.65;;
77324;SDS011;66387;53.440;10.390;2023-12-20T01:19:08;4.90;;;1.83;;
77324;SDS011;66387;53.440;10.390;2023-12-20T01:21:33;12.50;;;2.50;;
77324;SDS011;66387;53.440;10.390;2023-12-20T01:23:58;4.77;;;1.57;;
77324;SDS011;66387;53.440;10.390;2023-12-20T01:26:23;6.33;;;1.53;;
77324;SDS011;66387;53.440;10.390;2023-12-20T01:28:49;5.07;;;1.60;;
77324;SDS011;66387;53.440;10.390;2023-12-20T01:31:14;5.83;;;1.90;;
77324;SDS011;66387;53.440;10.390;2023-12-20T01:33:39;8.33;;;2.27;;
77324;SDS011;66387;53.440;10.390;2023-12-20T01:36:05;4.87;;;1.63;;
77324;SDS011;66387;53.440;10.390;2023-12-20T01:38:30;7.35;;;2.13;;
77324;SDS011;66387;53.440;10.390;2023-12-20T01:40:55;4.47;;;1.33;;
77324;SDS011;66387;53.440;10.390;2023-12-20T01:43:20;10.80;;;2.00;;
77324;SDS011;66387;53.440;10.390;2023-12-20T01:45:46;8.03;;;1.83;;
77324;SDS011;66387;53.440;10.390;2023-12-20T01:48:12;6.82;;;1.85;;
77324;SDS011;66387;53.440;10.390;2023-12-20T01:50:39;11.23;;;2.08;;
77324;SDS011;66387;53.440;10.390;2023-12-20T01:53:05;10.63;;;2.13;;
77324;SDS011;66387;53.440;10.390;2023-12-20T01:55:33;3.40;;;2.08;;
77324;SDS011;66387;53.440;10.390;2023-12-20T02:00:26;6.80;;;1.50;;
77324;SDS011;66387;53.440;10.390;2023-12-20T02:02:53;9.45;;;2.33;;
77324;SDS011;66387;53.440;10.390;2023-12-20T02:05:22;5.70;;;1.80;;
77324;SDS011;66387;53.440;10.390;2023-12-20T02:07:48;5.45;;;1.88;;
77324;SDS011;66387;53.440;10.390;2023-12-20T02:10:13;7.83;;;1.73;;
77324;SDS011;66387;53.440;10.390;2023-12-20T02:12:39;5.20;;;2.50;;
77324;SDS011;66387;53.440;10.390;2023-12-20T02:15:05;6.05;;;2.10;;
77324;SDS011;66387;53.440;10.390;2023-12-20T02:17:31;4.72;;;1.90;;
77324;SDS011;66387;53.440;10.390;2023-12-20T02:19:57;7.35;;;1.70;;
77324;SDS011;66387;53.440;10.390;2023-12-20T02:22:22;6.70;;;2.20;;
77324;SDS011;66387;53.440;10.390;2023-12-20T02:24:47;7.63;;;1.83;;
77324;SDS011;66387;53.440;10.390;2023-12-20T02:27:13;8.03;;;2.50;;
77324;SDS011;66387;53.440;10.390;2023-12-20T02:29:42;8.13;;;2.10;;
77324;SDS011;66387;53.440;10.390;2023-12-20T02:32:07;4.43;;;1.37;;
77324;SDS011;66387;53.440;10.390;2023-12-20T02:34:33;6.33;;;1.73;;
77324;SDS011;66387;53.440;10.390;2023-12-20T02:36:58;4.90;;;1.67;;
77324;SDS011;66387;53.440;10.390;2023-12-20T02:39:23;5.57;;;1.60;;
77324;SDS011;66387;53.440;10.390;2023-12-20T02:41:48;6.90;;;1.93;;
77324;SDS011;66387;53.440;10.390;2023-12-20T02:44:14;3.73;;;1.70;;
77324;SDS011;66387;53.440;10.390;2023-12-20T02:46:39;3.90;;;1.52;;
77324;SDS011;66387;53.440;10.390;2023-12-20T02:49:05;4.93;;;1.83;;
77324;SDS011;66387;53.440;10.390;2023-12-20T02:51:31;5.47;;;1.55;;
77324;SDS011;66387;53.440;10.390;2023-12-20T02:53:56;10.17;;;1.90;;
77324;SDS011;66387;53.440;10.390;2023-12-20T02:56:21;6.50;;;1.73;;
77324;SDS011;66387;53.440;10.390;2023-12-20T02:58:47;6.45;;;2.17;;
77324;SDS011;66387;53.440;10.390;2023-12-20T03:01:13;9.52;;;2.55;;
77324;SDS011;66387;53.440;10.390;2023-12-20T03:03:38;8.77;;;1.90;;
77324;SDS011;66387;53.440;10.390;2023-12-20T03:06:04;6.97;;;2.27;;
77324;SDS011;66387;53.440;10.390;2023-12-20T03:08:29;11.30;;;2.27;;
77324;SDS011;66387;53.440;10.390;2023-12-20T03:10:54;7.70;;;1.90;;
77324;SDS011;66387;53.440;10.390;2023-12-20T03:13:19;6.07;;;2.13;;
77324;SDS011;66387;53.440;10.390;2023-12-20T03:15:45;8.33;;;1.80;;
77324;SDS011;66387;53.440;10.390;2023-12-20T03:18:11;9.00;;;2.05;;
77324;SDS011;66387;53.440;10.390;2023-12-20T03:20:36;3.67;;;1.48;;
77324;SDS011;66387;53.440;10.390;2023-12-20T03:23:01;6.30;;;2.57;;
77324;SDS011;66387;53.440;10.390;2023-12-20T03:25:27;4.20;;;2.40;;
77324;SDS011;66387;53.440;10.390;2023-12-20T03:27:52;7.30;;;2.57;;
77324;SDS011;66387;53.440;10.390;2023-12-20T03:30:18;7.18;;;2.20;;
77324;SDS011;66387;53.440;10.390;2023-12-20T03:32:43;3.97;;;1.77;;
77324;SDS011;66387;53.440;10.390;2023-12-20T03:35:09;8.07;;;2.30;;
77324;SDS011;66387;53.440;10.390;2023-12-20T03:37:34;5.20;;;2.30;;
77324;SDS011;66387;53.440;10.390;2023-12-20T03:40:00;6.45;;;2.92;;
77324;SDS011;66387;53.440;10.390;2023-12-20T03:42:25;5.07;;;3.10;;
77324;SDS011;66387;53.440;10.390;2023-12-20T03:44:51;13.70;;;3.17;;
77324;SDS011;66387;53.440;10.390;2023-12-20T03:47:16;6.37;;;3.00;;
77324;SDS011;66387;53.440;10.390;2023-12-20T03:49:41;7.27;;;2.90;;
77324;SDS011;66387;53.440;10.390;2023-12-20T03:52:06;7.13;;;3.43;;
77324;SDS011;66387;53.440;10.390;2023-12-20T03:54:32;11.57;;;3.13;;
77324;SDS011;66387;53.440;10.390;2023-12-20T03:56:58;9.05;;;3.30;;
77324;SDS011;66387;53.440;10.390;2023-12-20T03:59:23;7.37;;;3.87;;
77324;SDS011;66387;53.440;10.390;2023-12-20T04:01:48;5.50;;;3.03;;
77324;SDS011;66387;53.440;10.390;2023-12-20T04:04:14;8.17;;;3.20;;
77324;SDS011;66387;53.440;10.390;2023-12-20T04:06:39;6.53;;;2.53;;
77324;SDS011;66387;53.440;10.390;2023-12-20T04:09:05;9.88;;;3.22;;
77324;SDS011;66387;53.440;10.390;2023-12-20T04:11:30;6.87;;;2.93;;
77324;SDS011;66387;53.440;10.390;2023-12-20T04:13:55;6.80;;;2.73;;
77324;SDS011;66387;53.440;10.390;2023-12-20T04:16:20;7.65;;;3.10;;
77324;SDS011;66387;53.440;10.390;2023-12-20T04:18:46;8.50;;;2.70;;
77324;SDS011;66387;53.440;10.390;2023-12-20T04:21:11;8.10;;;2.53;;
77324;SDS011;66387;53.440;10.390;2023-12-20T04:23:36;7.97;;;2.83;;
77324;SDS011;66387;53.440;10.390;2023-12-20T04:26:01;7.33;;;2.87;;
77324;SDS011;66387;53.440;10.390;2023-12-20T04:28:27;9.13;;;3.63;;
77324;SDS011;66387;53.440;10.390;2023-12-20T04:30:55;8.00;;;3.17;;
77324;SDS011;66387;53.440;10.390;2023-12-20T04:33:20;9.20;;;3.20;;
77324;SDS011;66387;53.440;10.390;2023-12-20T04:35:45;5.87;;;2.73;;
77324;SDS011;66387;53.440;10.390;2023-12-20T04:38:11;9.45;;;3.40;;
77324;SDS011;66387;53.440;10.390;2023-12-20T04:40:36;9.25;;;3.53;;
77324;SDS011;66387;53.440;10.390;2023-12-20T04:43:01;10.17;;;3.60;;
77324;SDS011;66387;53.440;10.390;2023-12-20T04:45:27;15.63;;;3.87;;
77324;SDS011;66387;53.440;10.390;2023-12-20T04:47:52;5.43;;;2.93;;
77324;SDS011;66387;53.440;10.390;2023-12-20T04:50:17;7.17;;;3.67;;
77324;SDS011;66387;53.440;10.390;2023-12-20T04:52:42;5.53;;;3.20;;
77324;SDS011;66387;53.440;10.390;2023-12-20T04:55:08;7.07;;;3.27;;
77324;SDS011;66387;53.440;10.390;2023-12-20T04:57:34;4.75;;;3.08;;
77324;SDS011;66387;53.440;10.390;2023-12-20T04:59:59;7.55;;;3.90;;
77324;SDS011;66387;53.440;10.390;2023-12-20T05:02:25;7.80;;;3.70;;
77324;SDS011;66387;53.440;10.390;2023-12-20T05:04:50;11.40;;;3.35;;
77324;SDS011;66387;53.440;10.390;2023-12-20T05:07:15;10.23;;;3.57;;
77324;SDS011;66387;53.440;10.390;2023-12-20T05:09:41;9.82;;;3.30;;
77324;SDS011;66387;53.440;10.390;2023-12-20T05:12:06;10.82;;;4.57;;
77324;SDS011;66387;53.440;10.390;2023-12-20T05:14:31;7.90;;;3.70;;
77324;SDS011;66387;53.440;10.390;2023-12-20T05:16:57;8.13;;;3.67;;
77324;SDS011;66387;53.440;10.390;2023-12-20T05:19:22;8.00;;;3.80;;
77324;SDS011;66387;53.440;10.390;2023-12-20T05:21:48;9.30;;;4.43;;
77324;SDS011;66387;53.440;10.390;2023-12-20T05:24:13;11.03;;;5.03;;
77324;SDS011;66387;53.440;10.390;2023-12-20T05:26:38;15.57;;;5.40;;
77324;SDS011;66387;53.440;10.390;2023-12-20T05:29:03;9.23;;;4.00;;
77324;SDS011;66387;53.440;10.390;2023-12-20T05:31:29;7.50;;;3.20;;
77324;SDS011;66387;53.440;10.390;2023-12-20T05:33:54;8.53;;;4.30;;
77324;SDS011;66387;53.440;10.390;2023-12-20T05:36:19;9.73;;;4.73;;
77324;SDS011;66387;53.440;10.390;2023-12-20T05:38:44;7.90;;;4.03;;
77324;SDS011;66387;53.440;10.390;2023-12-20T05:41:10;9.90;;;4.37;;
77324;SDS011;66387;53.440;10.390;2023-12-20T05:43:35;11.23;;;4.63;;
77324;SDS011;66387;53.440;10.390;2023-12-20T05:46:00;11.20;;;4.67;;
77324;SDS011;66387;53.440;10.390;2023-12-20T05:48:25;6.77;;;4.00;;
77324;SDS011;66387;53.440;10.390;2023-12-20T05:50:51;9.23;;;3.65;;
77324;SDS011;66387;53.440;10.390;2023-12-20T05:53:16;10.03;;;4.37;;
77324;SDS011;66387;53.440;10.390;2023-12-20T05:55:41;7.60;;;4.03;;
77324;SDS011;66387;53.440;10.390;2023-12-20T05:58:06;14.17;;;4.97;;
77324;SDS011;66387;53.440;10.390;2023-12-20T06:00:32;9.90;;;5.00;;
77324;SDS011;66387;53.440;10.390;2023-12-20T06:02:57;8.43;;;3.77;;
77324;SDS011;66387;53.440;10.390;2023-12-20T06:05:22;10.13;;;4.53;;
77324;SDS011;66387;53.440;10.390;2023-12-20T06:07:47;4.40;;;2.67;;
77324;SDS011;66387;53.440;10.390;2023-12-20T06:10:14;7.22;;;4.35;;
77324;SDS011;66387;53.440;10.390;2023-12-20T06:12:40;9.47;;;3.90;;
77324;SDS011;66387;53.440;10.390;2023-12-20T06:15:05;9.53;;;3.77;;
77324;SDS011;66387;53.440;10.390;2023-12-20T06:17:31;8.73;;;4.13;;
77324;SDS011;66387;53.440;10.390;2023-12-20T06:19:56;8.35;;;3.58;;
77324;SDS011;66387;53.440;10.390;2023-12-20T06:22:22;12.30;;;4.35;;
77324;SDS011;66387;53.440;10.390;2023-12-20T06:24:47;12.05;;;3.92;;
77324;SDS011;66387;53.440;10.390;2023-12-20T06:27:12;8.93;;;3.90;;
77324;SDS011;66387;53.440;10.390;2023-12-20T06:29:38;9.53;;;4.50;;
77324;SDS011;66387;53.440;10.390;2023-12-20T06:32:03;7.53;;;3.50;;
77324;SDS011;66387;53.440;10.390;2023-12-20T06:34:29;9.23;;;4.10;;
77324;SDS011;66387;53.440;10.390;2023-12-20T06:36:54;8.43;;;4.20;;
77324;SDS011;66387;53.440;10.390;2023-12-20T06:39:19;7.27;;;3.33;;
77324;SDS011;66387;53.440;10.390;2023-12-20T06:41:44;9.00;;;3.47;;
77324;SDS011;66387;53.440;10.390;2023-12-20T06:44:10;11.17;;;3.80;;
77324;SDS011;66387;53.440;10.390;2023-12-20T06:46:35;10.50;;;3.63;;
77324;SDS011;66387;53.440;10.390;2023-12-20T06:49:00;11.17;;;3.30;;
77324;SDS011;66387;53.440;10.390;2023-12-20T06:51:25;8.70;;;3.23;;
77324;SDS011;66387;53.440;10.390;2023-12-20T06:53:53;10.50;;;4.07;;
77324;SDS011;66387;53.440;10.390;2023-12-20T06:56:19;5.43;;;3.53;;
77324;SDS011;66387;53.440;10.390;2023-12-20T06:58:44;7.37;;;3.37;;
77324;SDS011;66387;53.440;10.390;2023-12-20T07:01:13;8.43;;;3.50;;
77324;SDS011;66387;53.440;10.390;2023-12-20T07:03:39;16.58;;;4.20;;
77324;SDS011;66387;53.440;10.390;2023-12-20T07:06:07;8.52;;;3.60;;
77324;SDS011;66387;53.440;10.390;2023-12-20T07:08:32;9.75;;;3.20;;
77324;SDS011;66387;53.440;10.390;2023-12-20T07:10:58;6.90;;;2.80;;
77324;SDS011;66387;53.440;10.390;2023-12-20T07:13:23;4.75;;;2.80;;
77324;SDS011;66387;53.440;10.390;2023-12-20T07:15:48;9.37;;;3.37;;
77324;SDS011;66387;53.440;10.390;2023-12-20T07:18:14;8.20;;;3.55;;
77324;SDS011;66387;53.440;10.390;2023-12-20T07:20:39;11.02;;;3.90;;
77324;SDS011;66387;53.440;10.390;2023-12-20T07:23:04;5.53;;;3.25;;
77324;SDS011;66387;53.440;10.390;2023-12-20T07:25:30;10.70;;;4.00;;
77324;SDS011;66387;53.440;10.390;2023-12-20T07:27:57;7.00;;;3.75;;
77324;SDS011;66387;53.440;10.390;2023-12-20T07:30:22;7.15;;;3.72;;
77324;SDS011;66387;53.440;10.390;2023-12-20T07:32:48;9.47;;;3.67;;
77324;SDS011;66387;53.440;10.390;2023-12-20T07:35:13;12.50;;;4.00;;
77324;SDS011;66387;53.440;10.390;2023-12-20T07:37:38;10.23;;;4.22;;
77324;SDS011;66387;53.440;10.390;2023-12-20T07:40:04;10.27;;;4.80;;
77324;SDS011;66387;53.440;10.390;2023-12-20T07:42:29;10.38;;;4.57;;
77324;SDS011;66387;53.440;10.390;2023-12-20T07:44:55;13.60;;;4.17;;
77324;SDS011;66387;53.440;10.390;2023-12-20T07:47:20;10.57;;;5.67;;
77324;SDS011;66387;53.440;10.390;2023-12-20T07:49:47;13.00;;;5.00;;
77324;SDS011;66387;53.440;10.390;2023-12-20T07:52:16;13.18;;;4.28;;
77324;SDS011;66387;53.440;10.390;2023-12-20T07:54:42;9.82;;;3.92;;
77324;SDS011;66387;53.440;10.390;2023-12-20T07:57:07;7.35;;;3.85;;
77324;SDS011;66387;53.440;10.390;2023-12-20T07:59:32;10.23;;;4.57;;
77324;SDS011;66387;53.440;10.390;2023-12-20T08:01:58;6.53;;;4.00;;
77324;SDS011;66387;53.440;10.390;2023-12-20T08:04:23;9.70;;;4.88;;
77324;SDS011;66387;53.440;10.390;2023-12-20T08:06:50;10.80;;;4.70;;
77324;SDS011;66387;53.440;10.390;2023-12-20T08:09:15;11.50;;;4.47;;
77324;SDS011;66387;53.440;10.390;2023-12-20T08:11:44;8.00;;;3.10;;
77324;SDS011;66387;53.440;10.390;2023-12-20T08:14:12;8.35;;;3.58;;
77324;SDS011;66387;53.440;10.390;2023-12-20T08:16:38;10.55;;;5.07;;
77324;SDS011;66387;53.440;10.390;2023-12-20T08:19:04;12.43;;;4.38;;
77324;SDS011;66387;53.440;10.390;2023-12-20T08:21:29;10.67;;;5.07;;
77324;SDS011;66387;53.440;10.390;2023-12-20T08:23:54;11.65;;;3.80;;
77324;SDS011;66387;53.440;10.390;2023-12-20T08:26:20;8.55;;;3.88;;
77324;SDS011;66387;53.440;10.390;2023-12-20T08:28:46;10.50;;;4.47;;
77324;SDS011;66387;53.440;10.390;2023-12-20T08:31:15;8.90;;;3.97;;
77324;SDS011;66387;53.440;10.390;2023-12-20T08:33:43;10.73;;;3.83;;
77324;SDS011;66387;53.440;10.390;2023-12-20T08:36:09;8.15;;;3.00;;
77324;SDS011;66387;53.440;10.390;2023-12-20T08:38:34;9.07;;;4.03;;
77324;SDS011;66387;53.440;10.390;2023-12-20T08:40:59;15.13;;;4.90;;
77324;SDS011;66387;53.440;10.390;2023-12-20T08:43:26;9.05;;;3.95;;
77324;SDS011;66387;53.440;10.390;2023-12-20T08:45:51;23.90;;;5.50;;
77324;SDS011;66387;53.440;10.390;2023-12-20T08:48:16;8.33;;;3.27;;
77324;SDS011;66387;53.440;10.390;2023-12-20T08:50:41;10.87;;;3.83;;
77324;SDS011;66387;53.440;10.390;2023-12-20T08:53:07;9.63;;;3.93;;
77324;SDS011;66387;53.440;10.390;2023-12-20T08:55:32;11.50;;;4.33;;
77324;SDS011;66387;53.440;10.390;2023-12-20T08:57:57;9.60;;;4.43;;
77324;SDS011;66387;53.440;10.390;2023-12-20T09:00:23;14.18;;;4.30;;
77324;SDS011;66387;53.440;10.390;2023-12-20T09:02:52;9.30;;;3.38;;
77324;SDS011;66387;53.440;10.390;2023-12-20T09:05:17;8.40;;;3.63;;
77324;SDS011;66387;53.440;10.390;2023-12-20T09:07:42;12.73;;;4.20;;
77324;SDS011;66387;53.440;10.390;2023-12-20T09:10:08;6.28;;;3.25;;
77324;SDS011;66387;53.440;10.390;2023-12-20T09:12:33;10.82;;;3.83;;
77324;SDS011;66387;53.440;10.390;2023-12-20T09:14:58;9.30;;;3.20;;
77324;SDS011;66387;53.440;10.390;2023-12-20T09:17:26;8.45;;;3.20;;
77324;SDS011;66387;53.440;10.390;2023-12-20T09:19:51;9.13;;;3.73;;
77324;SDS011;66387;53.440;10.390;2023-12-20T09:22:18;8.75;;;3.63;;
77324;SDS011;66387;53.440;10.390;2023-12-20T09:24:44;10.23;;;3.97;;
77324;SDS011;66387;53.440;10.390;2023-12-20T09:27:09;8.20;;;3.45;;
77324;SDS011;66387;53.440;10.390;2023-12-20T09:29:35;7.80;;;3.85;;
77324;SDS011;66387;53.440;10.390;2023-12-20T09:32:00;7.43;;;2.63;;
77324;SDS011;66387;53.440;10.390;2023-12-20T09:34:25;6.37;;;3.27;;
77324;SDS011;66387;53.440;10.390;2023-12-20T09:36:51;4.25;;;3.08;;
77324;SDS011;66387;53.440;10.390;2023-12-20T09:39:17;6.13;;;1.88;;
77324;SDS011;66387;53.440;10.390;2023-12-20T09:41:44;5.57;;;1.60;;
77324;SDS011;66387;53.440;10.390;2023-12-20T09:44:14;3.45;;;2.08;;
77324;SDS011;66387;53.440;10.390;2023-12-20T09:46:43;6.78;;;2.30;;
77324;SDS011;66387;53.440;10.390;2023-12-20T09:49:10;6.78;;;2.30;;
77324;SDS011;66387;53.440;10.390;2023-12-20T09:51:37;6.15;;;2.13;;
77324;SDS011;66387;53.440;10.390;2023-12-20T09:54:03;4.07;;;2.08;;
77324;SDS011;66387;53.440;10.390;2023-12-20T09:56:28;7.05;;;2.40;;
77324;SDS011;66387;53.440;10.390;2023-12-20T09:58:54;2.60;;;1.52;;
77324;SDS011;66387;53.440;10.390;2023-12-20T10:01:19;3.60;;;1.53;;
77324;SDS011;66387;53.440;10.390;2023-12-20T10:03:46;4.85;;;1.60;;
77324;SDS011;66387;53.440;10.390;2023-12-20T10:06:11;1.67;;;1.25;;
77324;SDS011;66387;53.440;10.390;2023-12-20T10:08:37;2.55;;;1.15;;
77324;SDS011;66387;53.440;10.390;2023-12-20T10:11:02;1.40;;;1.20;;
77324;SDS011;66387;53.440;10.390;2023-12-20T10:13:29;1.15;;;0.73;;
77324;SDS011;66387;53.440;10.390;2023-12-20T10:15:54;1.87;;;1.17;;
77324;SDS011;66387;53.440;10.390;2023-12-20T10:18:20;1.23;;;0.45;;
77324;SDS011;66387;53.440;10.390;2023-12-20T10:20:46;1.15;;;0.55;;
77324;SDS011;66387;53.440;10.390;2023-12-20T10:23:12;1.13;;;0.93;;
77324;SDS011;66387;53.440;10.390;2023-12-20T10:25:38;1.50;;;0.77;;
77324;SDS011;66387;53.440;10.390;2023-12-20T10:30:35;1.27;;;0.63;;
77324;SDS011;66387;53.440;10.390;2023-12-20T10:33:01;0.83;;;0.53;;
77324;SDS011;66387;53.440;10.390;2023-12-20T10:35:26;1.30;;;0.60;;
77324;SDS011;66387;53.440;10.390;2023-12-20T10:37:52;0.73;;;0.53;;
77324;SDS011;66387;53.440;10.390;2023-12-20T10:40:21;1.27;;;0.60;;
77324;SDS011;66387;53.440;10.390;2023-12-20T10:42:47;0.73;;;0.50;;
77324;SDS011;66387;53.440;10.390;2023-12-20T10:45:15;0.40;;;0.30;;
77324;SDS011;66387;53.440;10.390;2023-12-20T10:47:42;1.13;;;0.45;;
77324;SDS011;66387;53.440;10.390;2023-12-20T10:50:11;0.82;;;0.50;;
77324;SDS011;66387;53.440;10.390;2023-12-20T10:52:36;3.20;;;0.85;;
77324;SDS011;66387;53.440;10.390;2023-12-20T10:55:03;4.10;;;0.90;;
77324;SDS011;66387;53.440;10.390;2023-12-20T10:57:28;1.63;;;0.93;;
77324;SDS011;66387;53.440;10.390;2023-12-20T10:59:54;0.40;;;0.40;;
77324;SDS011;66387;53.440;10.390;2023-12-20T11:02:25;2.20;;;1.92;;
77324;SDS011;66387;53.440;10.390;2023-12-20T11:07:47;3.40;;;1.13;;
77324;SDS011;66387;53.440;10.390;2023-12-20T11:10:17;1.27;;;0.73;;
77324;SDS011;66387;53.440;10.390;2023-12-20T11:12:48;4.72;;;1.52;;
77324;SDS011;66387;53.440;10.390;2023-12-20T11:15:18;3.78;;;1.15;;
77324;SDS011;66387;53.440;10.390;2023-12-20T11:17:44;7.75;;;1.63;;
77324;SDS011;66387;53.440;10.390;2023-12-20T11:20:11;1.65;;;1.30;;
77324;SDS011;66387;53.440;10.390;2023-12-20T11:22:37;4.18;;;1.40;;
77324;SDS011;66387;53.440;10.390;2023-12-20T11:25:05;1.95;;;0.70;;
77324;SDS011;66387;53.440;10.390;2023-12-20T11:27:33;4.25;;;1.50;;
77324;SDS011;66387;53.440;10.390;2023-12-20T11:29:59;4.68;;;1.30;;
77324;SDS011;66387;53.440;10.390;2023-12-20T11:34:55;1.10;;;1.00;;
77324;SDS011;66387;53.440;10.390;2023-12-20T11:37:28;2.28;;;1.10;;
77324;SDS011;66387;53.440;10.390;2023-12-20T11:40:01;5.10;;;2.15;;
77324;SDS011;66387;53.440;10.390;2023-12-20T11:42:40;3.20;;;1.23;;
77324;SDS011;66387;53.440;10.390;2023-12-20T11:45:10;2.45;;;1.08;;
77324;SDS011;66387;53.440;10.390;2023-12-20T11:47:36;4.78;;;1.20;;
77324;SDS011;66387;53.440;10.390;2023-12-20T11:50:02;5.18;;;0.77;;
77324;SDS011;66387;53.440;10.390;2023-12-20T11:52:29;1.85;;;0.93;;
77324;SDS011;66387;53.440;10.390;2023-12-20T11:54:55;3.58;;;0.95;;
77324;SDS011;66387;53.440;10.390;2023-12-20T11:57:20;6.80;;;1.97;;
77324;SDS011;66387;53.440;10.390;2023-12-20T11:59:45;1.60;;;0.77;;
77324;SDS011;66387;53.440;10.390;2023-12-20T12:02:11;2.75;;;1.23;;
77324;SDS011;66387;53.440;10.390;2023-12-20T12:04:37;4.47;;;1.70;;
77324;SDS011;66387;53.440;10.390;2023-12-20T12:07:02;4.77;;;1.60;;
77324;SDS011;66387;53.440;10.390;2023-12-20T12:09:28;5.85;;;2.05;;
77324;SDS011;66387;53.440;10.390;2023-12-20T12:11:53;3.00;;;1.23;;
77324;SDS011;66387;53.440;10.390;2023-12-20T12:14:18;6.37;;;1.83;;
77324;SDS011;66387;53.440;10.390;2023-12-20T12:16:45;3.00;;;1.27;;
77324;SDS011;66387;53.440;10.390;2023-12-20T12:19:23;6.05;;;1.70;;
77324;SDS011;66387;53.440;10.390;2023-12-20T12:21:50;3.53;;;1.45;;
77324;SDS011;66387;53.440;10.390;2023-12-20T12:24:19;5.97;;;1.98;;
77324;SDS011;66387;53.440;10.390;2023-12-20T12:26:49;6.15;;;1.38;;
77324;SDS011;66387;53.440;10.390;2023-12-20T12:29:16;6.45;;;1.42;;
77324;SDS011;66387;53.440;10.390;2023-12-20T12:31:41;3.67;;;1.40;;
77324;SDS011;66387;53.440;10.390;2023-12-20T12:34:06;6.00;;;1.90;;
77324;SDS011;66387;53.440;10.390;2023-12-20T12:36:34;4.22;;;1.48;;
77324;SDS011;66387;53.440;10.390;2023-12-20T12:39:01;6.85;;;1.90;;
77324;SDS011;66387;53.440;10.390;2023-12-20T12:41:29;8.63;;;1.80;;
77324;SDS011;66387;53.440;10.390;2023-12-20T12:43:54;4.17;;;1.47;;
77324;SDS011;66387;53.440;10.390;2023-12-20T12:46:20;4.60;;;1.63;;
77324;SDS011;66387;53.440;10.390;2023-12-20T12:48:45;4.37;;;1.63;;
77324;SDS011;66387;53.440;10.390;2023-12-20T12:51:10;3.67;;;1.30;;
77324;SDS011;66387;53.440;10.390;2023-12-20T12:53:38;4.95;;;2.05;;
77324;SDS011;66387;53.440;10.390;2023-12-20T12:56:03;4.30;;;1.23;;
77324;SDS011;66387;53.440;10.390;2023-12-20T12:58:29;3.42;;;1.75;;
77324;SDS011;66387;53.440;10.390;2023-12-20T13:00:55;4.97;;;1.52;;
77324;SDS011;66387;53.440;10.390;2023-12-20T13:03:20;8.67;;;1.90;;
77324;SDS011;66387;53.440;10.390;2023-12-20T13:05:45;4.60;;;1.98;;
77324;SDS011;66387;53.440;10.390;2023-12-20T13:08:12;5.70;;;1.63;;
77324;SDS011;66387;53.440;10.390;2023-12-20T13:10:38;4.40;;;1.25;;
77324;SDS011;66387;53.440;10.390;2023-12-20T13:13:03;7.23;;;1.80;;
77324;SDS011;66387;53.440;10.390;2023-12-20T13:15:29;4.80;;;2.00;;
77324;SDS011;66387;53.440;10.390;2023-12-20T13:17:55;3.78;;;1.60;;
77324;SDS011;66387;53.440;10.390;2023-12-20T13:20:20;9.60;;;1.90;;
77324;SDS011;66387;53.440;10.390;2023-12-20T13:22:47;5.70;;;1.98;;
77324;SDS011;66387;53.440;10.390;2023-12-20T13:25:12;4.60;;;1.73;;
77324;SDS011;66387;53.440;10.390;2023-12-20T13:27:38;6.82;;;2.13;;
77324;SDS011;66387;53.440;10.390;2023-12-20T13:30:03;3.93;;;1.73;;
77324;SDS011;66387;53.440;10.390;2023-12-20T13:32:29;8.02;;;1.80;;
77324;SDS011;66387;53.440;10.390;2023-12-20T13:34:54;7.97;;;2.67;;
77324;SDS011;66387;53.440;10.390;2023-12-20T13:37:20;5.57;;;2.55;;
77324;SDS011;66387;53.440;10.390;2023-12-20T13:39:45;7.27;;;1.70;;
77324;SDS011;66387;53.440;10.390;2023-12-20T13:42:11;9.07;;;2.10;;
77324;SDS011;66387;53.440;10.390;2023-12-20T13:44:36;12.37;;;2.10;;
77324;SDS011;66387;53.440;10.390;2023-12-20T13:47:01;9.85;;;2.88;;
77324;SDS011;66387;53.440;10.390;2023-12-20T13:49:28;7.93;;;2.28;;
77324;SDS011;66387;53.440;10.390;2023-12-20T13:51:53;4.80;;;2.47;;
77324;SDS011;66387;53.440;10.390;2023-12-20T13:54:19;6.22;;;2.30;;
77324;SDS011;66387;53.440;10.390;2023-12-20T13:56:46;4.18;;;1.50;;
77324;SDS011;66387;53.440;10.390;2023-12-20T13:59:11;5.07;;;2.43;;
77324;SDS011;66387;53.440;10.390;2023-12-20T14:01:37;7.40;;;2.85;;
77324;SDS011;66387;53.440;10.390;2023-12-20T14:04:03;8.73;;;2.00;;
77324;SDS011;66387;53.440;10.390;2023-12-20T14:06:28;11.48;;;2.80;;
77324;SDS011;66387;53.440;10.390;2023-12-20T14:08:54;8.52;;;3.00;;
77324;SDS011;66387;53.440;10.390;2023-12-20T14:11:19;3.90;;;2.47;;
77324;SDS011;66387;53.440;10.390;2023-12-20T14:13:45;6.87;;;2.80;;
77324;SDS011;66387;53.440;10.390;2023-12-20T14:16:10;13.88;;;3.38;;
77324;SDS011;66387;53.440;10.390;2023-12-20T14:18:35;9.17;;;2.93;;
77324;SDS011;66387;53.440;10.390;2023-12-20T14:21:01;8.23;;;3.38;;
77324;SDS011;66387;53.440;10.390;2023-12-20T14:23:26;7.83;;;2.73;;
77324;SDS011;66387;53.440;10.390;2023-12-20T14:25:51;12.80;;;3.20;;
77324;SDS011;66387;53.440;10.390;2023-12-20T14:28:17;10.30;;;2.60;;
77324;SDS011;66387;53.440;10.390;2023-12-20T14:30:43;11.23;;;2.28;;
77324;SDS011;66387;53.440;10.390;2023-12-20T14:33:08;12.60;;;3.40;;
77324;SDS011;66387;53.440;10.390;2023-12-20T14:35:33;9.40;;;2.80;;